Flight Track Log - Related Links

Times and Time Zones

All times are in EDT time to prevent confusion due to time zone crossing. See the CES5098 flight status page for this flight to view local times or setup timezone preferences in your user account.


Time Position Orientation Groundspeed Altitude Reporting Facility
EDT Latitude Longitude Course Direction KTS MPH feet Rate Location/Type
Fri 07:30:00 AM 31.1037 121.3398 358° North  Level Estimated
Fri 07:30:05 AM 30.9879 121.3239 18° North 261 300 8,800  Level FlightAware ADS-B (SHA / ZSSS)
Fri 07:30:33 AM 31.0086 121.3477 75° East 236 272 8,400 -257 Descending FlightAware ADS-B (SHA / ZSSS)
Fri 07:37:52 AM 31.1016 121.3394 North 221 254 6,800 -211 Descending FlightAware ADS-B (SHA / ZSSS)
Fri 07:38:08 AM 31.1169 121.3393 352° North 224 258 6,800  Level FlightAware ADS-B (SHA / ZSSS)
Fri 07:38:12 AM 31.1220 121.3375 347° North 224 258 6,800  Level FlightAware ADS-B (SHA / ZSSS)
Fri 07:38:17 AM 31.1256 121.3353 332° Northwest 226 260 6,800  Level FlightAware ADS-B (SHA / ZSSS)
Fri 07:38:22 AM 31.1299 121.3318 322° Northwest 227 261 6,800 545 Level FlightAware ADS-B (SHA / ZSSS)
Fri 07:38:28 AM 31.1345 121.3265 315° West 227 261 6,900  Climbing FlightAware ADS-B (SHA / ZSSS)
Fri 07:38:43 AM 31.1451 121.3130 311° West 228 262 6,800 -171 Descending FlightAware ADS-B (SHA / ZSSS)
Fri 07:39:03 AM 31.1590 121.2935 310° West 228 262 6,800 -176 Level FlightAware ADS-B (SHA / ZSSS)
Fri 07:39:17 AM 31.1686 121.2797 310° West 228 262 6,700 -828 Descending FlightAware ADS-B (SHA / ZSSS)
Fri 07:39:32 AM 31.1789 121.2650 310° West 231 266 6,400 -1,000 Descending FlightAware ADS-B (SHA / ZSSS)
Fri 07:39:47 AM 31.1889 121.2508 310° West 225 259 6,200 -686 Descending FlightAware ADS-B (SHA / ZSSS)
Fri 07:40:07 AM 31.2017 121.2334 311° West 218 251 6,000 -686 Descending FlightAware ADS-B (SHA / ZSSS)
Fri 07:40:22 AM 31.2112 121.2204 311° West 217 250 5,800 -774 Descending FlightAware ADS-B (SHA / ZSSS)
Fri 07:40:38 AM 31.2199 121.2085 311° West 214 246 5,600 -800 Descending FlightAware ADS-B (SHA / ZSSS)
Fri 07:40:52 AM 31.2315 121.1929 311° West 212 244 5,400 -1,000 Descending FlightAware ADS-B (SHA / ZSSS)
Fri 07:41:08 AM 31.2421 121.1806 327° Northwest 213 245 5,100 -1,200 Descending FlightAware ADS-B (SHA / ZSSS)
Fri 07:41:12 AM 31.2466 121.1779 332° Northwest 213 245 5,000 -600 Descending FlightAware ADS-B (SHA / ZSSS)
Fri 07:41:18 AM 31.2493 121.1769 345° North 210 242 5,000 -900 Level FlightAware ADS-B (SHA / ZSSS)
Fri 07:41:32 AM 31.2645 121.1734 352° North 207 238 4,700 -1,091 Descending FlightAware ADS-B (SHA / ZSSS)
Fri 07:42:02 AM 31.2923 121.1692 352° North 208 239 4,200 -933 Descending FlightAware ADS-B (SHA / ZSSS)
Fri 07:42:17 AM 31.3084 121.1670 354° North 207 238 4,000 -828 Descending FlightAware ADS-B (SHA / ZSSS)
Fri 07:42:31 AM 31.3219 121.1650 354° North 207 238 3,800 -882 Descending FlightAware ADS-B (SHA / ZSSS)
Fri 07:42:51 AM 31.3402 121.1668 16° North 198 228 3,500 -1,000 Descending FlightAware ADS-B (SHA / ZSSS)
Fri 07:43:07 AM 31.3546 121.1726 19° North 197 227 3,200 -968 Descending FlightAware ADS-B (SHA / ZSSS)
Fri 07:43:22 AM 31.3661 121.1774 19° North 197 227 3,000 -290 Descending FlightAware ADS-B (SHA / ZSSS)
Fri 07:44:09 AM 31.4074 121.1943 19° North 193 222 2,900 -185 Descending FlightAware ADS-B (SHA / ZSSS)
Fri 07:49:52 AM 31.3070 121.3304 177° South 138 159 1,800 -218 Descending FlightAware ADS-B (SHA / ZSSS)
Fri 07:50:07 AM 31.2975 121.3308 178° South 132 152 1,600 -800 Descending FlightAware ADS-B (SHA / ZSSS)
Fri 07:50:22 AM 31.2890 121.3311 178° South 124 143 1,400 -600 Descending FlightAware ADS-B (SHA / ZSSS)
Fri 07:50:37 AM 31.2801 121.3317 176° South 122 140 1,300 -600 Descending FlightAware ADS-B (SHA / ZSSS)
Fri 07:50:52 AM 31.2713 121.3323 176° South 125 144 1,100 -600 Descending FlightAware ADS-B (SHA / ZSSS)
Fri 07:51:07 AM 31.2632 121.3328 178° South 126 145 1,000 -600 Descending FlightAware ADS-B (SHA / ZSSS)
Fri 07:51:22 AM 31.2547 121.3333 177° South 128 147 800 -800 Descending FlightAware ADS-B (SHA / ZSSS)
Fri 07:51:37 AM 31.2454 121.3338 177° South 132 152 600 -800 Descending FlightAware ADS-B (SHA / ZSSS)
Fri 07:51:52 AM 31.2356 121.3342 177° South 132 152 400 -800 Descending FlightAware ADS-B (SHA / ZSSS)

Login

Don't have an account? Register now (free) for customized features, flight alerts, and more!